sensor_id;sensor_type;location;lat;lon;timestamp;P1;durP1;ratioP1;P2;durP2;ratioP2
52210;SDS011;38179;52.756;6.906;2022-07-21T00:01:15;31.08;;;27.50;;
52210;SDS011;38179;52.756;6.906;2022-07-21T00:03:41;30.85;;;27.73;;
52210;SDS011;38179;52.756;6.906;2022-07-21T00:06:06;30.67;;;27.80;;
52210;SDS011;38179;52.756;6.906;2022-07-21T00:08:33;30.10;;;27.25;;
52210;SDS011;38179;52.756;6.906;2022-07-21T00:10:59;29.60;;;26.70;;
52210;SDS011;38179;52.756;6.906;2022-07-21T00:13:25;28.38;;;25.70;;
52210;SDS011;38179;52.756;6.906;2022-07-21T00:15:51;28.10;;;25.52;;
52210;SDS011;38179;52.756;6.906;2022-07-21T00:18:18;29.17;;;26.67;;
52210;SDS011;38179;52.756;6.906;2022-07-21T00:20:45;30.52;;;27.60;;
52210;SDS011;38179;52.756;6.906;2022-07-21T00:23:11;29.98;;;27.27;;
52210;SDS011;38179;52.756;6.906;2022-07-21T00:25:37;31.02;;;28.08;;
52210;SDS011;38179;52.756;6.906;2022-07-21T00:28:03;32.67;;;29.23;;
52210;SDS011;38179;52.756;6.906;2022-07-21T00:30:30;32.92;;;29.55;;
52210;SDS011;38179;52.756;6.906;2022-07-21T00:32:56;31.85;;;28.95;;
52210;SDS011;38179;52.756;6.906;2022-07-21T00:35:22;37.50;;;29.83;;
52210;SDS011;38179;52.756;6.906;2022-07-21T00:37:48;31.75;;;28.90;;
52210;SDS011;38179;52.756;6.906;2022-07-21T00:40:14;31.52;;;28.73;;
52210;SDS011;38179;52.756;6.906;2022-07-21T00:42:41;32.38;;;29.58;;
52210;SDS011;38179;52.756;6.906;2022-07-21T00:45:08;32.50;;;29.60;;
52210;SDS011;38179;52.756;6.906;2022-07-21T00:47:35;32.20;;;29.30;;
52210;SDS011;38179;52.756;6.906;2022-07-21T00:50:04;32.60;;;29.70;;
52210;SDS011;38179;52.756;6.906;2022-07-21T00:52:33;33.08;;;30.17;;
52210;SDS011;38179;52.756;6.906;2022-07-21T00:54:59;32.22;;;29.25;;
52210;SDS011;38179;52.756;6.906;2022-07-21T00:57:26;31.17;;;28.23;;
52210;SDS011;38179;52.756;6.906;2022-07-21T00:59:52;32.88;;;29.67;;
52210;SDS011;38179;52.756;6.906;2022-07-21T01:02:18;32.25;;;29.15;;
52210;SDS011;38179;52.756;6.906;2022-07-21T01:04:44;31.67;;;29.00;;
52210;SDS011;38179;52.756;6.906;2022-07-21T01:07:10;31.25;;;28.60;;
52210;SDS011;38179;52.756;6.906;2022-07-21T01:09:36;32.22;;;29.23;;
52210;SDS011;38179;52.756;6.906;2022-07-21T01:12:02;30.13;;;27.42;;
52210;SDS011;38179;52.756;6.906;2022-07-21T01:14:29;32.20;;;29.30;;
52210;SDS011;38179;52.756;6.906;2022-07-21T01:16:55;29.48;;;26.70;;
52210;SDS011;38179;52.756;6.906;2022-07-21T01:19:21;33.47;;;30.40;;
52210;SDS011;38179;52.756;6.906;2022-07-21T01:21:47;33.00;;;30.08;;
52210;SDS011;38179;52.756;6.906;2022-07-21T01:24:14;30.65;;;27.80;;
52210;SDS011;38179;52.756;6.906;2022-07-21T01:26:41;31.10;;;28.40;;
52210;SDS011;38179;52.756;6.906;2022-07-21T01:29:08;31.48;;;28.67;;
52210;SDS011;38179;52.756;6.906;2022-07-21T01:31:36;30.67;;;28.08;;
52210;SDS011;38179;52.756;6.906;2022-07-21T01:34:02;33.22;;;29.98;;
52210;SDS011;38179;52.756;6.906;2022-07-21T01:36:29;33.10;;;30.08;;
52210;SDS011;38179;52.756;6.906;2022-07-21T01:38:55;34.88;;;31.67;;
52210;SDS011;38179;52.756;6.906;2022-07-21T01:41:39;32.90;;;29.98;;
52210;SDS011;38179;52.756;6.906;2022-07-21T01:44:06;32.85;;;29.58;;
52210;SDS011;38179;52.756;6.906;2022-07-21T01:46:35;31.35;;;28.55;;
52210;SDS011;38179;52.756;6.906;2022-07-21T01:49:03;32.33;;;29.00;;
52210;SDS011;38179;52.756;6.906;2022-07-21T01:51:29;33.10;;;29.73;;
52210;SDS011;38179;52.756;6.906;2022-07-21T01:53:56;33.45;;;30.35;;
52210;SDS011;38179;52.756;6.906;2022-07-21T01:56:22;32.92;;;29.85;;
52210;SDS011;38179;52.756;6.906;2022-07-21T01:58:51;31.38;;;28.65;;
52210;SDS011;38179;52.756;6.906;2022-07-21T02:01:22;33.10;;;30.25;;
52210;SDS011;38179;52.756;6.906;2022-07-21T02:03:51;33.38;;;30.27;;
52210;SDS011;38179;52.756;6.906;2022-07-21T02:06:19;32.97;;;30.08;;
52210;SDS011;38179;52.756;6.906;2022-07-21T02:08:45;34.08;;;30.83;;
52210;SDS011;38179;52.756;6.906;2022-07-21T02:11:11;32.42;;;29.52;;
52210;SDS011;38179;52.756;6.906;2022-07-21T02:13:39;31.95;;;29.15;;
52210;SDS011;38179;52.756;6.906;2022-07-21T02:16:05;31.95;;;29.02;;
52210;SDS011;38179;52.756;6.906;2022-07-21T02:18:32;30.48;;;27.75;;
52210;SDS011;38179;52.756;6.906;2022-07-21T02:20:58;29.90;;;27.38;;
52210;SDS011;38179;52.756;6.906;2022-07-21T02:23:24;30.27;;;27.77;;
52210;SDS011;38179;52.756;6.906;2022-07-21T02:25:51;28.33;;;26.13;;
52210;SDS011;38179;52.756;6.906;2022-07-21T02:28:18;30.58;;;27.98;;
52210;SDS011;38179;52.756;6.906;2022-07-21T02:30:45;27.58;;;25.27;;
52210;SDS011;38179;52.756;6.906;2022-07-21T02:33:11;32.25;;;29.50;;
52210;SDS011;38179;52.756;6.906;2022-07-21T02:35:37;29.83;;;27.05;;
52210;SDS011;38179;52.756;6.906;2022-07-21T02:38:03;30.52;;;28.05;;
52210;SDS011;38179;52.756;6.906;2022-07-21T02:40:29;32.70;;;29.85;;
52210;SDS011;38179;52.756;6.906;2022-07-21T02:42:55;32.72;;;29.92;;
52210;SDS011;38179;52.756;6.906;2022-07-21T02:45:21;33.83;;;30.80;;
52210;SDS011;38179;52.756;6.906;2022-07-21T02:47:55;32.65;;;29.83;;
52210;SDS011;38179;52.756;6.906;2022-07-21T02:50:27;30.40;;;27.92;;
52210;SDS011;38179;52.756;6.906;2022-07-21T02:52:58;32.85;;;30.05;;
52210;SDS011;38179;52.756;6.906;2022-07-21T02:55:25;33.63;;;30.73;;
52210;SDS011;38179;52.756;6.906;2022-07-21T03:00:38;32.17;;;29.48;;
52210;SDS011;38179;52.756;6.906;2022-07-21T03:03:06;33.38;;;30.48;;
52210;SDS011;38179;52.756;6.906;2022-07-21T03:05:33;33.63;;;30.75;;
52210;SDS011;38179;52.756;6.906;2022-07-21T03:08:02;33.78;;;30.88;;
52210;SDS011;38179;52.756;6.906;2022-07-21T03:10:29;33.35;;;30.25;;
52210;SDS011;38179;52.756;6.906;2022-07-21T03:12:55;32.38;;;29.63;;
52210;SDS011;38179;52.756;6.906;2022-07-21T03:15:21;32.15;;;29.45;;
52210;SDS011;38179;52.756;6.906;2022-07-21T03:17:47;31.35;;;28.73;;
52210;SDS011;38179;52.756;6.906;2022-07-21T03:20:13;31.77;;;28.98;;
52210;SDS011;38179;52.756;6.906;2022-07-21T03:22:39;31.88;;;29.10;;
52210;SDS011;38179;52.756;6.906;2022-07-21T03:25:05;32.38;;;29.65;;
52210;SDS011;38179;52.756;6.906;2022-07-21T03:27:31;33.13;;;30.20;;
52210;SDS011;38179;52.756;6.906;2022-07-21T03:30:03;32.55;;;29.83;;
52210;SDS011;38179;52.756;6.906;2022-07-21T03:32:30;34.67;;;31.77;;
52210;SDS011;38179;52.756;6.906;2022-07-21T03:34:56;36.70;;;33.50;;
52210;SDS011;38179;52.756;6.906;2022-07-21T03:37:22;37.33;;;34.08;;
52210;SDS011;38179;52.756;6.906;2022-07-21T03:39:47;36.17;;;32.78;;
52210;SDS011;38179;52.756;6.906;2022-07-21T03:42:13;37.28;;;33.95;;
52210;SDS011;38179;52.756;6.906;2022-07-21T03:44:39;34.80;;;31.90;;
52210;SDS011;38179;52.756;6.906;2022-07-21T03:47:05;37.65;;;33.72;;
52210;SDS011;38179;52.756;6.906;2022-07-21T03:49:31;32.35;;;29.67;;
52210;SDS011;38179;52.756;6.906;2022-07-21T03:51:57;37.45;;;34.05;;
52210;SDS011;38179;52.756;6.906;2022-07-21T03:54:23;38.88;;;35.40;;
52210;SDS011;38179;52.756;6.906;2022-07-21T03:56:48;38.35;;;34.97;;
52210;SDS011;38179;52.756;6.906;2022-07-21T03:59:14;40.55;;;36.78;;
52210;SDS011;38179;52.756;6.906;2022-07-21T04:01:40;41.10;;;37.53;;
52210;SDS011;38179;52.756;6.906;2022-07-21T04:04:06;40.97;;;37.33;;
52210;SDS011;38179;52.756;6.906;2022-07-21T04:06:32;41.25;;;37.53;;
52210;SDS011;38179;52.756;6.906;2022-07-21T04:08:58;43.92;;;39.95;;
52210;SDS011;38179;52.756;6.906;2022-07-21T04:11:24;46.78;;;42.30;;
52210;SDS011;38179;52.756;6.906;2022-07-21T04:13:50;46.72;;;42.53;;
52210;SDS011;38179;52.756;6.906;2022-07-21T04:16:16;45.38;;;41.20;;
52210;SDS011;38179;52.756;6.906;2022-07-21T04:18:41;47.08;;;42.78;;
52210;SDS011;38179;52.756;6.906;2022-07-21T04:21:07;44.97;;;41.03;;
52210;SDS011;38179;52.756;6.906;2022-07-21T04:23:33;43.08;;;39.13;;
52210;SDS011;38179;52.756;6.906;2022-07-21T04:25:59;41.85;;;38.17;;
52210;SDS011;38179;52.756;6.906;2022-07-21T04:28:25;41.15;;;37.42;;
52210;SDS011;38179;52.756;6.906;2022-07-21T04:30:51;39.88;;;36.30;;
52210;SDS011;38179;52.756;6.906;2022-07-21T04:33:17;38.85;;;35.42;;
52210;SDS011;38179;52.756;6.906;2022-07-21T04:35:43;39.00;;;35.50;;
52210;SDS011;38179;52.756;6.906;2022-07-21T04:38:09;38.53;;;35.20;;
52210;SDS011;38179;52.756;6.906;2022-07-21T04:40:35;38.53;;;35.20;;
52210;SDS011;38179;52.756;6.906;2022-07-21T04:43:02;39.83;;;36.45;;
52210;SDS011;38179;52.756;6.906;2022-07-21T04:45:28;39.42;;;36.00;;
52210;SDS011;38179;52.756;6.906;2022-07-21T04:47:54;39.70;;;36.20;;
52210;SDS011;38179;52.756;6.906;2022-07-21T04:50:21;40.70;;;37.08;;
52210;SDS011;38179;52.756;6.906;2022-07-21T04:52:50;40.22;;;36.67;;
52210;SDS011;38179;52.756;6.906;2022-07-21T04:55:16;38.83;;;35.58;;
52210;SDS011;38179;52.756;6.906;2022-07-21T04:57:44;41.10;;;37.60;;
52210;SDS011;38179;52.756;6.906;2022-07-21T05:02:39;41.40;;;37.80;;
52210;SDS011;38179;52.756;6.906;2022-07-21T05:05:05;42.88;;;39.17;;
52210;SDS011;38179;52.756;6.906;2022-07-21T05:07:32;40.03;;;36.42;;
52210;SDS011;38179;52.756;6.906;2022-07-21T05:09:58;41.13;;;37.60;;
52210;SDS011;38179;52.756;6.906;2022-07-21T05:12:27;42.78;;;38.67;;
52210;SDS011;38179;52.756;6.906;2022-07-21T05:14:53;42.30;;;38.50;;
52210;SDS011;38179;52.756;6.906;2022-07-21T05:17:19;43.22;;;39.45;;
52210;SDS011;38179;52.756;6.906;2022-07-21T05:19:45;42.13;;;38.33;;
52210;SDS011;38179;52.756;6.906;2022-07-21T05:22:15;42.47;;;38.78;;
52210;SDS011;38179;52.756;6.906;2022-07-21T05:24:41;42.30;;;38.47;;
52210;SDS011;38179;52.756;6.906;2022-07-21T05:27:07;44.38;;;40.38;;
52210;SDS011;38179;52.756;6.906;2022-07-21T05:29:33;41.83;;;38.13;;
52210;SDS011;38179;52.756;6.906;2022-07-21T05:31:59;40.03;;;36.63;;
52210;SDS011;38179;52.756;6.906;2022-07-21T05:34:25;41.03;;;37.47;;
52210;SDS011;38179;52.756;6.906;2022-07-21T05:36:51;40.33;;;36.60;;
52210;SDS011;38179;52.756;6.906;2022-07-21T05:39:18;41.35;;;37.75;;
52210;SDS011;38179;52.756;6.906;2022-07-21T05:41:44;35.80;;;32.45;;
52210;SDS011;38179;52.756;6.906;2022-07-21T05:44:11;41.35;;;37.55;;
52210;SDS011;38179;52.756;6.906;2022-07-21T05:46:37;40.88;;;37.25;;
52210;SDS011;38179;52.756;6.906;2022-07-21T05:49:04;40.75;;;37.30;;
52210;SDS011;38179;52.756;6.906;2022-07-21T05:51:29;40.75;;;37.10;;
52210;SDS011;38179;52.756;6.906;2022-07-21T05:53:55;41.55;;;37.97;;
52210;SDS011;38179;52.756;6.906;2022-07-21T05:56:21;41.75;;;38.25;;
52210;SDS011;38179;52.756;6.906;2022-07-21T05:58:47;42.30;;;38.45;;
52210;SDS011;38179;52.756;6.906;2022-07-21T06:01:13;42.38;;;38.25;;
52210;SDS011;38179;52.756;6.906;2022-07-21T06:03:46;43.22;;;39.33;;
52210;SDS011;38179;52.756;6.906;2022-07-21T06:06:14;43.03;;;39.13;;
52210;SDS011;38179;52.756;6.906;2022-07-21T06:08:42;44.55;;;40.40;;
52210;SDS011;38179;52.756;6.906;2022-07-21T06:11:09;45.40;;;41.28;;
52210;SDS011;38179;52.756;6.906;2022-07-21T06:13:37;45.53;;;41.22;;
52210;SDS011;38179;52.756;6.906;2022-07-21T06:16:04;43.63;;;39.63;;
52210;SDS011;38179;52.756;6.906;2022-07-21T06:18:30;44.88;;;40.72;;
52210;SDS011;38179;52.756;6.906;2022-07-21T06:20:56;44.13;;;40.05;;
52210;SDS011;38179;52.756;6.906;2022-07-21T06:23:22;44.25;;;40.30;;
52210;SDS011;38179;52.756;6.906;2022-07-21T06:25:48;46.72;;;42.30;;
52210;SDS011;38179;52.756;6.906;2022-07-21T06:28:15;45.50;;;41.20;;
52210;SDS011;38179;52.756;6.906;2022-07-21T06:30:41;45.03;;;40.90;;
52210;SDS011;38179;52.756;6.906;2022-07-21T06:33:07;45.15;;;40.97;;
52210;SDS011;38179;52.756;6.906;2022-07-21T06:35:33;44.50;;;40.17;;
52210;SDS011;38179;52.756;6.906;2022-07-21T06:37:59;44.05;;;40.03;;
52210;SDS011;38179;52.756;6.906;2022-07-21T06:40:25;45.00;;;40.80;;
52210;SDS011;38179;52.756;6.906;2022-07-21T06:42:51;46.92;;;42.42;;
52210;SDS011;38179;52.756;6.906;2022-07-21T06:45:17;46.08;;;41.78;;
52210;SDS011;38179;52.756;6.906;2022-07-21T06:47:43;46.90;;;42.65;;
52210;SDS011;38179;52.756;6.906;2022-07-21T06:50:09;45.40;;;41.20;;
52210;SDS011;38179;52.756;6.906;2022-07-21T06:52:35;46.13;;;42.03;;
52210;SDS011;38179;52.756;6.906;2022-07-21T06:55:02;46.70;;;42.50;;
52210;SDS011;38179;52.756;6.906;2022-07-21T06:57:30;47.40;;;42.95;;
52210;SDS011;38179;52.756;6.906;2022-07-21T06:59:56;47.63;;;43.05;;
52210;SDS011;38179;52.756;6.906;2022-07-21T07:02:21;46.45;;;42.17;;
52210;SDS011;38179;52.756;6.906;2022-07-21T07:04:47;47.15;;;42.97;;
52210;SDS011;38179;52.756;6.906;2022-07-21T07:07:13;49.55;;;44.92;;
52210;SDS011;38179;52.756;6.906;2022-07-21T07:09:39;47.22;;;42.95;;
52210;SDS011;38179;52.756;6.906;2022-07-21T07:12:06;49.28;;;44.78;;
52210;SDS011;38179;52.756;6.906;2022-07-21T07:14:34;47.72;;;43.28;;
52210;SDS011;38179;52.756;6.906;2022-07-21T07:17:01;47.80;;;43.55;;
52210;SDS011;38179;52.756;6.906;2022-07-21T07:19:28;46.90;;;42.50;;
52210;SDS011;38179;52.756;6.906;2022-07-21T07:21:55;43.65;;;39.65;;
52210;SDS011;38179;52.756;6.906;2022-07-21T07:24:21;47.67;;;43.15;;
52210;SDS011;38179;52.756;6.906;2022-07-21T07:26:47;47.40;;;43.40;;
52210;SDS011;38179;52.756;6.906;2022-07-21T07:29:13;47.45;;;43.05;;
52210;SDS011;38179;52.756;6.906;2022-07-21T07:31:40;45.08;;;41.17;;
52210;SDS011;38179;52.756;6.906;2022-07-21T07:34:06;45.92;;;41.63;;
52210;SDS011;38179;52.756;6.906;2022-07-21T07:36:32;48.55;;;44.25;;
52210;SDS011;38179;52.756;6.906;2022-07-21T07:39:00;48.63;;;44.42;;
52210;SDS011;38179;52.756;6.906;2022-07-21T07:41:28;45.67;;;41.63;;
52210;SDS011;38179;52.756;6.906;2022-07-21T07:43:56;49.25;;;44.90;;
52210;SDS011;38179;52.756;6.906;2022-07-21T07:46:25;48.72;;;44.30;;
52210;SDS011;38179;52.756;6.906;2022-07-21T07:48:51;46.67;;;42.40;;
52210;SDS011;38179;52.756;6.906;2022-07-21T07:51:17;45.08;;;41.20;;
52210;SDS011;38179;52.756;6.906;2022-07-21T07:53:42;45.45;;;41.35;;
52210;SDS011;38179;52.756;6.906;2022-07-21T07:56:08;44.58;;;40.67;;
52210;SDS011;38179;52.756;6.906;2022-07-21T07:58:34;41.45;;;37.65;;
52210;SDS011;38179;52.756;6.906;2022-07-21T08:01:00;44.13;;;40.28;;
52210;SDS011;38179;52.756;6.906;2022-07-21T08:03:26;44.10;;;40.22;;
52210;SDS011;38179;52.756;6.906;2022-07-21T08:05:53;44.08;;;40.08;;
52210;SDS011;38179;52.756;6.906;2022-07-21T08:08:21;43.10;;;39.20;;
52210;SDS011;38179;52.756;6.906;2022-07-21T08:10:47;44.90;;;40.80;;
52210;SDS011;38179;52.756;6.906;2022-07-21T08:13:15;45.38;;;41.35;;
52210;SDS011;38179;52.756;6.906;2022-07-21T08:15:42;46.78;;;42.58;;
52210;SDS011;38179;52.756;6.906;2022-07-21T08:18:09;47.17;;;42.60;;
52210;SDS011;38179;52.756;6.906;2022-07-21T08:20:35;44.80;;;40.80;;
52210;SDS011;38179;52.756;6.906;2022-07-21T08:23:03;45.10;;;41.15;;
52210;SDS011;38179;52.756;6.906;2022-07-21T08:25:29;45.60;;;41.55;;
52210;SDS011;38179;52.756;6.906;2022-07-21T08:27:55;44.60;;;40.60;;
52210;SDS011;38179;52.756;6.906;2022-07-21T08:30:21;44.65;;;40.83;;
52210;SDS011;38179;52.756;6.906;2022-07-21T08:32:47;43.50;;;39.47;;
52210;SDS011;38179;52.756;6.906;2022-07-21T08:35:13;43.95;;;40.17;;
52210;SDS011;38179;52.756;6.906;2022-07-21T08:37:39;42.53;;;38.67;;
52210;SDS011;38179;52.756;6.906;2022-07-21T08:40:06;42.58;;;38.60;;
52210;SDS011;38179;52.756;6.906;2022-07-21T08:42:35;43.42;;;39.63;;
52210;SDS011;38179;52.756;6.906;2022-07-21T08:45:01;42.63;;;38.67;;
52210;SDS011;38179;52.756;6.906;2022-07-21T08:47:28;41.67;;;38.08;;
52210;SDS011;38179;52.756;6.906;2022-07-21T08:49:55;41.60;;;37.88;;
52210;SDS011;38179;52.756;6.906;2022-07-21T08:52:22;40.47;;;36.90;;
52210;SDS011;38179;52.756;6.906;2022-07-21T08:54:48;41.35;;;37.70;;
52210;SDS011;38179;52.756;6.906;2022-07-21T08:57:15;40.78;;;36.97;;
52210;SDS011;38179;52.756;6.906;2022-07-21T08:59:41;38.53;;;35.33;;
52210;SDS011;38179;52.756;6.906;2022-07-21T09:04:53;39.28;;;35.92;;
52210;SDS011;38179;52.756;6.906;2022-07-21T09:07:19;38.90;;;35.60;;
52210;SDS011;38179;52.756;6.906;2022-07-21T09:10:05;38.05;;;34.75;;
52210;SDS011;38179;52.756;6.906;2022-07-21T09:12:31;38.35;;;35.05;;
52210;SDS011;38179;52.756;6.906;2022-07-21T09:15:17;38.15;;;34.85;;
52210;SDS011;38179;52.756;6.906;2022-07-21T09:17:45;38.85;;;35.50;;
52210;SDS011;38179;52.756;6.906;2022-07-21T09:20:21;38.50;;;35.25;;
52210;SDS011;38179;52.756;6.906;2022-07-21T09:23:02;37.92;;;34.63;;
52210;SDS011;38179;52.756;6.906;2022-07-21T09:25:34;39.25;;;35.90;;
52210;SDS011;38179;52.756;6.906;2022-07-21T09:33:28;40.75;;;37.08;;
52210;SDS011;38179;52.756;6.906;2022-07-21T09:38:28;39.72;;;36.13;;
52210;SDS011;38179;52.756;6.906;2022-07-21T09:40:55;39.08;;;35.67;;
52210;SDS011;38179;52.756;6.906;2022-07-21T09:46:16;39.65;;;36.13;;
52210;SDS011;38179;52.756;6.906;2022-07-21T09:48:48;40.53;;;36.92;;
52210;SDS011;38179;52.756;6.906;2022-07-21T09:53:55;41.03;;;37.45;;
52210;SDS011;38179;52.756;6.906;2022-07-21T09:56:32;41.42;;;37.72;;
52210;SDS011;38179;52.756;6.906;2022-07-21T09:59:00;43.10;;;39.30;;
52210;SDS011;38179;52.756;6.906;2022-07-21T10:01:26;45.13;;;40.97;;
52210;SDS011;38179;52.756;6.906;2022-07-21T10:03:54;45.00;;;40.87;;
52210;SDS011;38179;52.756;6.906;2022-07-21T10:06:29;45.35;;;41.05;;
52210;SDS011;38179;52.756;6.906;2022-07-21T10:09:00;47.22;;;42.72;;
52210;SDS011;38179;52.756;6.906;2022-07-21T10:11:28;47.35;;;42.72;;
52210;SDS011;38179;52.756;6.906;2022-07-21T10:13:55;47.78;;;43.10;;
52210;SDS011;38179;52.756;6.906;2022-07-21T10:16:21;47.97;;;43.38;;
52210;SDS011;38179;52.756;6.906;2022-07-21T10:22:07;49.53;;;44.97;;
52210;SDS011;38179;52.756;6.906;2022-07-21T10:24:58;51.15;;;46.10;;
52210;SDS011;38179;52.756;6.906;2022-07-21T10:27:25;50.60;;;45.97;;
52210;SDS011;38179;52.756;6.906;2022-07-21T10:29:51;50.70;;;45.70;;
52210;SDS011;38179;52.756;6.906;2022-07-21T10:32:24;51.47;;;46.58;;
52210;SDS011;38179;52.756;6.906;2022-07-21T10:34:53;51.05;;;46.00;;
52210;SDS011;38179;52.756;6.906;2022-07-21T10:40:04;52.05;;;46.85;;
52210;SDS011;38179;52.756;6.906;2022-07-21T10:42:36;51.95;;;46.92;;
52210;SDS011;38179;52.756;6.906;2022-07-21T10:45:02;50.28;;;45.35;;
52210;SDS011;38179;52.756;6.906;2022-07-21T10:47:58;50.88;;;46.03;;
52210;SDS011;38179;52.756;6.906;2022-07-21T10:55:36;49.92;;;45.00;;
52210;SDS011;38179;52.756;6.906;2022-07-21T11:03:41;47.20;;;42.70;;
52210;SDS011;38179;52.756;6.906;2022-07-21T11:06:11;49.05;;;44.25;;
52210;SDS011;38179;52.756;6.906;2022-07-21T11:08:40;49.17;;;44.45;;
52210;SDS011;38179;52.756;6.906;2022-07-21T11:11:08;46.95;;;42.35;;
52210;SDS011;38179;52.756;6.906;2022-07-21T11:22:00;49.83;;;45.08;;
52210;SDS011;38179;52.756;6.906;2022-07-21T11:24:40;49.50;;;44.72;;
52210;SDS011;38179;52.756;6.906;2022-07-21T11:27:09;49.13;;;44.67;;
52210;SDS011;38179;52.756;6.906;2022-07-21T11:29:58;47.28;;;43.05;;
52210;SDS011;38179;52.756;6.906;2022-07-21T11:32:26;48.90;;;44.60;;
52210;SDS011;38179;52.756;6.906;2022-07-21T11:34:54;47.88;;;43.53;;
52210;SDS011;38179;52.756;6.906;2022-07-21T11:37:45;46.78;;;42.55;;
52210;SDS011;38179;52.756;6.906;2022-07-21T11:40:16;46.13;;;41.88;;
52210;SDS011;38179;52.756;6.906;2022-07-21T11:42:45;42.38;;;38.63;;
52210;SDS011;38179;52.756;6.906;2022-07-21T11:45:13;44.08;;;40.17;;
52210;SDS011;38179;52.756;6.906;2022-07-21T11:47:40;42.22;;;38.63;;
52210;SDS011;38179;52.756;6.906;2022-07-21T11:50:07;42.20;;;38.33;;
52210;SDS011;38179;52.756;6.906;2022-07-21T11:55:05;42.88;;;39.13;;
52210;SDS011;38179;52.756;6.906;2022-07-21T11:57:35;43.90;;;39.55;;
52210;SDS011;38179;52.756;6.906;2022-07-21T12:00:01;42.45;;;38.75;;
52210;SDS011;38179;52.756;6.906;2022-07-21T12:02:31;41.95;;;38.05;;
52210;SDS011;38179;52.756;6.906;2022-07-21T12:04:57;41.85;;;38.20;;
52210;SDS011;38179;52.756;6.906;2022-07-21T12:10:23;41.60;;;37.70;;
52210;SDS011;38179;52.756;6.906;2022-07-21T12:12:51;38.75;;;35.35;;
52210;SDS011;38179;52.756;6.906;2022-07-21T12:15:23;41.85;;;37.85;;
52210;SDS011;38179;52.756;6.906;2022-07-21T12:17:56;40.92;;;37.30;;
52210;SDS011;38179;52.756;6.906;2022-07-21T12:20:25;40.05;;;36.65;;
52210;SDS011;38179;52.756;6.906;2022-07-21T12:22:56;37.03;;;33.90;;
52210;SDS011;38179;52.756;6.906;2022-07-21T12:25:30;38.15;;;34.65;;
52210;SDS011;38179;52.756;6.906;2022-07-21T12:27:58;38.42;;;35.13;;
52210;SDS011;38179;52.756;6.906;2022-07-21T12:30:31;39.17;;;35.65;;
52210;SDS011;38179;52.756;6.906;2022-07-21T12:33:20;39.67;;;35.87;;
52210;SDS011;38179;52.756;6.906;2022-07-21T12:41:01;38.15;;;34.78;;
52210;SDS011;38179;52.756;6.906;2022-07-21T12:43:27;39.03;;;35.47;;
52210;SDS011;38179;52.756;6.906;2022-07-21T12:45:58;39.03;;;35.53;;
52210;SDS011;38179;52.756;6.906;2022-07-21T12:53:47;31.60;;;28.90;;
52210;SDS011;38179;52.756;6.906;2022-07-21T12:56:16;32.17;;;29.45;;
52210;SDS011;38179;52.756;6.906;2022-07-21T12:58:47;32.03;;;29.27;;
52210;SDS011;38179;52.756;6.906;2022-07-21T13:01:15;32.17;;;29.55;;
52210;SDS011;38179;52.756;6.906;2022-07-21T13:06:09;34.20;;;31.30;;
52210;SDS011;38179;52.756;6.906;2022-07-21T13:08:36;35.35;;;32.25;;
52210;SDS011;38179;52.756;6.906;2022-07-21T13:11:04;33.50;;;30.65;;
52210;SDS011;38179;52.756;6.906;2022-07-21T13:13:30;33.88;;;30.77;;
52210;SDS011;38179;52.756;6.906;2022-07-21T13:15:57;33.95;;;31.05;;
52210;SDS011;38179;52.756;6.906;2022-07-21T13:18:23;32.53;;;29.65;;
52210;SDS011;38179;52.756;6.906;2022-07-21T13:20:50;33.22;;;29.70;;
52210;SDS011;38179;52.756;6.906;2022-07-21T13:23:17;29.13;;;26.73;;
52210;SDS011;38179;52.756;6.906;2022-07-21T13:25:43;29.02;;;26.67;;
52210;SDS011;38179;52.756;6.906;2022-07-21T13:28:09;30.05;;;27.55;;
52210;SDS011;38179;52.756;6.906;2022-07-21T13:30:35;26.50;;;24.40;;
52210;SDS011;38179;52.756;6.906;2022-07-21T13:33:01;27.85;;;25.65;;
52210;SDS011;38179;52.756;6.906;2022-07-21T13:35:27;26.98;;;24.95;;
52210;SDS011;38179;52.756;6.906;2022-07-21T13:37:53;27.40;;;25.20;;
52210;SDS011;38179;52.756;6.906;2022-07-21T13:40:20;26.88;;;24.77;;
52210;SDS011;38179;52.756;6.906;2022-07-21T13:42:46;27.42;;;25.23;;
52210;SDS011;38179;52.756;6.906;2022-07-21T13:45:12;28.52;;;26.17;;
52210;SDS011;38179;52.756;6.906;2022-07-21T13:47:39;26.05;;;24.05;;
52210;SDS011;38179;52.756;6.906;2022-07-21T13:50:05;26.23;;;24.20;;
52210;SDS011;38179;52.756;6.906;2022-07-21T13:52:32;26.73;;;24.65;;
52210;SDS011;38179;52.756;6.906;2022-07-21T13:54:58;26.00;;;23.90;;
52210;SDS011;38179;52.756;6.906;2022-07-21T13:57:24;26.75;;;24.65;;
52210;SDS011;38179;52.756;6.906;2022-07-21T13:59:50;25.65;;;23.75;;
52210;SDS011;38179;52.756;6.906;2022-07-21T14:02:16;25.65;;;23.75;;
52210;SDS011;38179;52.756;6.906;2022-07-21T14:04:42;27.60;;;25.50;;
52210;SDS011;38179;52.756;6.906;2022-07-21T14:07:08;29.17;;;26.98;;
52210;SDS011;38179;52.756;6.906;2022-07-21T14:09:39;29.55;;;27.05;;
52210;SDS011;38179;52.756;6.906;2022-07-21T14:12:06;30.13;;;27.75;;
52210;SDS011;38179;52.756;6.906;2022-07-21T14:14:32;28.77;;;26.48;;
52210;SDS011;38179;52.756;6.906;2022-07-21T14:16:58;28.45;;;26.25;;
52210;SDS011;38179;52.756;6.906;2022-07-21T14:19:24;29.08;;;26.67;;
52210;SDS011;38179;52.756;6.906;2022-07-21T14:21:50;28.00;;;25.80;;
52210;SDS011;38179;52.756;6.906;2022-07-21T14:24:16;26.55;;;24.55;;
52210;SDS011;38179;52.756;6.906;2022-07-21T14:27:00;27.02;;;24.98;;
52210;SDS011;38179;52.756;6.906;2022-07-21T14:29:26;27.73;;;25.63;;
52210;SDS011;38179;52.756;6.906;2022-07-21T14:31:52;27.70;;;25.50;;
52210;SDS011;38179;52.756;6.906;2022-07-21T14:34:18;27.50;;;25.35;;
52210;SDS011;38179;52.756;6.906;2022-07-21T14:36:44;27.95;;;25.85;;
52210;SDS011;38179;52.756;6.906;2022-07-21T14:39:12;29.27;;;27.03;;
52210;SDS011;38179;52.756;6.906;2022-07-21T14:41:39;29.08;;;26.67;;
52210;SDS011;38179;52.756;6.906;2022-07-21T14:44:05;29.85;;;27.48;;
52210;SDS011;38179;52.756;6.906;2022-07-21T14:46:31;30.08;;;27.67;;
52210;SDS011;38179;52.756;6.906;2022-07-21T14:48:57;29.15;;;26.85;;
52210;SDS011;38179;52.756;6.906;2022-07-21T14:51:23;29.60;;;27.30;;
52210;SDS011;38179;52.756;6.906;2022-07-21T14:53:49;28.80;;;26.60;;
52210;SDS011;38179;52.756;6.906;2022-07-21T14:56:15;27.55;;;25.58;;
52210;SDS011;38179;52.756;6.906;2022-07-21T14:58:41;28.13;;;25.85;;
52210;SDS011;38179;52.756;6.906;2022-07-21T15:01:06;27.85;;;25.58;;
52210;SDS011;38179;52.756;6.906;2022-07-21T15:03:32;26.75;;;24.65;;
52210;SDS011;38179;52.756;6.906;2022-07-21T15:05:58;27.65;;;25.45;;
52210;SDS011;38179;52.756;6.906;2022-07-21T15:08:24;26.80;;;24.70;;
52210;SDS011;38179;52.756;6.906;2022-07-21T15:10:50;27.90;;;25.65;;
52210;SDS011;38179;52.756;6.906;2022-07-21T15:13:16;27.05;;;24.95;;
52210;SDS011;38179;52.756;6.906;2022-07-21T15:15:42;26.17;;;24.27;;
52210;SDS011;38179;52.756;6.906;2022-07-21T15:18:09;26.05;;;24.17;;
52210;SDS011;38179;52.756;6.906;2022-07-21T15:20:38;26.25;;;24.25;;
52210;SDS011;38179;52.756;6.906;2022-07-21T15:23:04;25.38;;;23.48;;
52210;SDS011;38179;52.756;6.906;2022-07-21T15:25:30;25.20;;;23.38;;
52210;SDS011;38179;52.756;6.906;2022-07-21T15:27:56;25.58;;;23.67;;